createdAt,value
2022-12-23T00:03:19.838Z,7.15
2022-12-23T00:06:43.342Z,8.90
2022-12-23T00:10:07.370Z,7.15
2022-12-23T00:13:48.321Z,7.97
2022-12-23T00:17:29.156Z,7.43
2022-12-23T00:21:03.326Z,8.48
2022-12-23T00:24:30.048Z,7.70
2022-12-23T00:28:02.212Z,8.05
2022-12-23T00:31:25.548Z,7.50
2022-12-23T00:34:50.256Z,8.77
2022-12-23T00:38:13.623Z,6.85
2022-12-23T00:41:54.739Z,8.07
2022-12-23T00:45:18.403Z,8.45
2022-12-23T00:48:59.229Z,8.25
2022-12-23T00:52:23.923Z,7.85
2022-12-23T00:55:47.671Z,9.25
2022-12-23T00:59:11.060Z,8.88
2022-12-23T01:02:52.206Z,7.20
2022-12-23T01:06:15.863Z,8.75
2022-12-23T01:09:40.558Z,8.25
2022-12-23T01:13:03.899Z,8.95
2022-12-23T01:16:27.571Z,10.23
2022-12-23T01:19:57.590Z,10.18
2022-12-23T01:23:21.031Z,10.77
2022-12-23T01:26:45.675Z,11.50
2022-12-23T01:30:09.612Z,9.65
2022-12-23T01:33:33.803Z,12.63
2022-12-23T01:36:57.145Z,13.45
2022-12-23T01:40:20.454Z,12.38
2022-12-23T01:43:48.537Z,11.80
2022-12-23T01:47:13.350Z,11.75
2022-12-23T01:50:38.229Z,11.48
2022-12-23T01:54:02.628Z,11.45
2022-12-23T01:57:26.108Z,12.82
2022-12-23T02:01:08.387Z,13.88
2022-12-23T02:04:31.739Z,12.93
2022-12-23T02:08:12.771Z,13.18
2022-12-23T02:11:45.231Z,13.75
2022-12-23T02:15:44.604Z,11.85
2022-12-23T02:19:14.175Z,12.30
2022-12-23T02:22:45.583Z,13.55
2022-12-23T02:26:19.726Z,13.48
2022-12-23T02:30:01.935Z,14.45
2022-12-23T02:33:40.808Z,15.52
2022-12-23T02:37:06.592Z,17.48
2022-12-23T02:40:36.432Z,19.83
2022-12-23T02:44:01.560Z,18.08
2022-12-23T02:47:26.572Z,19.77
2022-12-23T02:50:53.421Z,17.48
2022-12-23T02:54:20.682Z,21.27
2022-12-23T02:57:45.933Z,17.60
2022-12-23T03:01:10.057Z,19.30
2022-12-23T03:04:33.610Z,19.55
2022-12-23T03:08:00.382Z,20.38
2022-12-23T03:11:23.676Z,19.42
2022-12-23T03:14:54.236Z,19.92
2022-12-23T03:18:22.928Z,19.50
2022-12-23T03:21:49.420Z,21.27
2022-12-23T03:25:15.722Z,21.55
2022-12-23T03:28:41.465Z,19.92
2022-12-23T03:32:05.399Z,22.20
2022-12-23T03:35:31.673Z,22.38
2022-12-23T03:38:56.828Z,23.70
2022-12-23T03:42:24.483Z,21.27
2022-12-23T03:45:50.679Z,23.73
2022-12-23T03:49:17.291Z,20.52
2022-12-23T03:52:43.092Z,22.13
2022-12-23T03:56:08.577Z,23.05
2022-12-23T03:59:33.949Z,24.52
2022-12-23T04:02:59.846Z,24.35
2022-12-23T04:06:23.849Z,22.98
2022-12-23T04:09:47.204Z,24.00
2022-12-23T04:13:10.547Z,25.25
2022-12-23T04:16:35.403Z,25.45
2022-12-23T04:19:58.819Z,20.98
2022-12-23T04:23:22.151Z,20.52
2022-12-23T04:26:45.455Z,21.88
2022-12-23T04:30:09.728Z,21.02
2022-12-23T04:33:34.404Z,22.27
2022-12-23T04:36:57.779Z,23.55
2022-12-23T04:40:21.122Z,23.58
2022-12-23T04:43:49.253Z,22.75
2022-12-23T04:47:16.091Z,20.80
2022-12-23T04:50:41.007Z,20.90
2022-12-23T04:54:04.402Z,19.92
2022-12-23T04:57:27.758Z,22.38
2022-12-23T05:00:51.131Z,20.65
2022-12-23T05:04:14.754Z,20.95
2022-12-23T05:07:39.460Z,20.35
2022-12-23T05:11:02.827Z,22.15
2022-12-23T05:14:26.276Z,21.73
2022-12-23T05:17:49.583Z,20.48
2022-12-23T05:21:12.946Z,20.10
2022-12-23T05:24:37.634Z,20.48
2022-12-23T05:28:01.055Z,22.27
2022-12-23T05:31:24.434Z,22.98
2022-12-23T05:34:47.823Z,21.52
2022-12-23T05:38:11.163Z,21.58
2022-12-23T05:41:35.859Z,22.48
2022-12-23T05:44:59.167Z,22.40
2022-12-23T05:48:22.748Z,21.63
2022-12-23T05:51:46.060Z,22.40
2022-12-23T05:55:10.156Z,23.98
2022-12-23T05:58:34.886Z,24.20
2022-12-23T06:01:58.372Z,24.55
2022-12-23T06:05:21.832Z,23.23
2022-12-23T06:08:45.191Z,24.38
2022-12-23T06:12:08.735Z,24.70
2022-12-23T06:15:33.449Z,25.77
2022-12-23T06:18:57.169Z,24.67
2022-12-23T06:22:21.576Z,24.25
2022-12-23T06:25:44.882Z,23.83
2022-12-23T06:29:08.199Z,25.05
2022-12-23T06:32:37.898Z,25.52
2022-12-23T06:36:01.984Z,23.38
2022-12-23T06:39:25.740Z,25.17
2022-12-23T06:42:49.016Z,22.73
2022-12-23T06:46:12.353Z,24.50
2022-12-23T06:49:37.051Z,26.20
2022-12-23T06:53:00.359Z,24.90
2022-12-23T06:56:23.650Z,24.85
2022-12-23T06:59:46.955Z,25.58
2022-12-23T07:03:10.352Z,25.40
2022-12-23T07:06:35.086Z,26.42
2022-12-23T07:09:58.389Z,24.10
2022-12-23T07:13:21.676Z,23.35
2022-12-23T07:16:45.221Z,21.98
2022-12-23T07:20:09.784Z,21.83
2022-12-23T07:23:36.835Z,22.10
2022-12-23T07:27:36.900Z,22.95
2022-12-23T07:31:02.956Z,24.42
2022-12-23T07:34:26.464Z,23.27
2022-12-23T07:37:52.854Z,22.58
2022-12-23T07:41:17.679Z,23.08
2022-12-23T07:44:40.972Z,22.52
2022-12-23T07:48:04.284Z,21.15
2022-12-23T07:51:27.574Z,20.10
2022-12-23T07:54:50.890Z,21.05
2022-12-23T07:58:15.558Z,20.83
2022-12-23T08:01:38.977Z,21.25
2022-12-23T08:05:02.412Z,20.45
2022-12-23T08:08:25.806Z,22.60
2022-12-23T08:11:49.108Z,21.50
2022-12-23T08:15:13.873Z,22.27
2022-12-23T08:18:38.444Z,20.00
2022-12-23T08:22:01.755Z,21.90
2022-12-23T08:25:28.146Z,23.92
2022-12-23T08:28:53.446Z,22.63
2022-12-23T08:32:20.703Z,21.67
2022-12-23T08:35:44.112Z,24.27
2022-12-23T08:39:08.775Z,23.80
2022-12-23T08:42:32.126Z,22.63
2022-12-23T08:45:55.853Z,23.58
2022-12-23T08:49:20.552Z,22.95
2022-12-23T08:52:43.979Z,22.45
2022-12-23T08:56:08.231Z,24.35
2022-12-23T08:59:31.693Z,22.55
2022-12-23T09:02:55.044Z,23.17
2022-12-23T09:06:28.300Z,22.05
2022-12-23T09:09:52.283Z,25.45
2022-12-23T09:13:25.004Z,21.77
2022-12-23T09:16:52.476Z,23.88
2022-12-23T09:20:15.908Z,23.45
2022-12-23T09:23:40.605Z,22.83
2022-12-23T09:27:03.902Z,21.92
2022-12-23T09:30:27.259Z,21.10
2022-12-23T09:33:51.413Z,20.63
2022-12-23T09:37:16.664Z,21.05
2022-12-23T09:40:42.264Z,20.02
2022-12-23T09:44:16.298Z,18.35
2022-12-23T09:47:40.073Z,19.30
2022-12-23T09:51:06.361Z,18.58
2022-12-23T09:54:31.899Z,19.23
2022-12-23T09:58:05.034Z,16.70
2022-12-23T10:01:32.718Z,20.02
2022-12-23T10:05:03.122Z,18.55
2022-12-23T10:08:41.512Z,18.98
2022-12-23T10:12:08.049Z,22.33
2022-12-23T10:15:37.387Z,19.33
2022-12-23T10:19:06.015Z,21.20
2022-12-23T10:22:34.578Z,20.13
2022-12-23T10:25:58.334Z,21.63
2022-12-23T10:29:22.699Z,21.35
2022-12-23T10:32:56.548Z,22.98
2022-12-23T10:36:22.746Z,23.77
2022-12-23T10:39:51.911Z,23.05
2022-12-23T10:43:19.561Z,20.45
2022-12-23T10:46:46.940Z,20.38
2022-12-23T10:50:16.807Z,20.67
2022-12-23T10:53:42.258Z,20.80
2022-12-23T10:57:07.615Z,19.35
2022-12-23T11:00:31.270Z,19.30
2022-12-23T11:03:58.272Z,17.48
2022-12-23T11:07:43.899Z,16.95
2022-12-23T11:11:15.510Z,17.45
2022-12-23T11:14:41.469Z,16.67
2022-12-23T11:18:17.996Z,16.30
2022-12-23T11:21:54.412Z,16.85
2022-12-23T11:25:29.568Z,17.30
2022-12-23T11:28:54.801Z,16.60
2022-12-23T11:32:20.092Z,19.02
2022-12-23T11:35:43.510Z,15.55
2022-12-23T11:39:16.842Z,13.10
2022-12-23T11:42:42.512Z,13.80
2022-12-23T11:46:15.917Z,13.73
2022-12-23T11:49:49.364Z,12.07
2022-12-23T11:53:14.203Z,11.30
2022-12-23T11:56:38.066Z,12.55
2022-12-23T12:00:04.132Z,11.35
2022-12-23T12:03:29.783Z,11.20
2022-12-23T12:06:56.550Z,11.30
2022-12-23T12:10:22.641Z,11.50
2022-12-23T12:13:46.936Z,11.02
2022-12-23T12:17:15.539Z,13.35
2022-12-23T12:20:40.704Z,13.63
2022-12-23T12:24:18.439Z,12.63
2022-12-23T12:27:45.011Z,14.07
2022-12-23T12:31:16.949Z,12.45
2022-12-23T12:34:44.572Z,11.73
2022-12-23T12:38:12.443Z,10.65
2022-12-23T12:41:37.314Z,9.43
2022-12-23T12:45:04.495Z,10.20
2022-12-23T12:48:33.992Z,9.93
2022-12-23T12:52:04.328Z,14.13
2022-12-23T12:55:29.515Z,16.73
2022-12-23T12:58:52.915Z,10.73
2022-12-23T13:02:37.296Z,10.55
2022-12-23T13:06:06.743Z,11.05
2022-12-23T13:09:36.545Z,10.43
2022-12-23T13:13:02.803Z,12.30
2022-12-23T13:16:32.172Z,11.15
2022-12-23T13:19:58.650Z,11.30
2022-12-23T13:27:12.862Z,11.10
2022-12-23T13:30:39.832Z,9.50
2022-12-23T13:34:05.694Z,10.27
2022-12-23T13:37:31.671Z,10.48
2022-12-23T13:41:00.132Z,10.98
2022-12-23T13:44:25.058Z,11.20
2022-12-23T13:47:52.973Z,11.38
2022-12-23T13:51:20.430Z,9.30
2022-12-23T13:54:48.591Z,10.02
2022-12-23T13:58:13.398Z,9.10
2022-12-23T14:01:45.139Z,9.50
2022-12-23T14:05:28.222Z,8.82
2022-12-23T14:08:52.490Z,8.07
2022-12-23T14:12:21.601Z,7.45
2022-12-23T14:15:50.012Z,6.88
2022-12-23T14:19:24.141Z,7.65
2022-12-23T14:22:55.287Z,7.97
2022-12-23T14:26:24.486Z,7.68
2022-12-23T14:29:52.955Z,7.65
2022-12-23T14:33:17.675Z,6.75
2022-12-23T14:37:02.350Z,7.03
2022-12-23T14:40:52.895Z,7.70
2022-12-23T14:44:20.128Z,9.05
2022-12-23T14:47:46.345Z,8.13
2022-12-23T14:51:23.423Z,8.43
2022-12-23T14:55:20.690Z,10.65
2022-12-23T14:58:50.233Z,13.02
2022-12-23T15:02:18.992Z,13.10
2022-12-23T15:05:42.554Z,23.25
2022-12-23T15:09:07.369Z,25.42
2022-12-23T15:12:34.247Z,23.55
2022-12-23T15:16:01.724Z,25.27
2022-12-23T15:19:26.845Z,20.00
2022-12-23T15:22:50.395Z,16.38
2022-12-23T15:26:13.806Z,16.25
2022-12-23T15:29:38.542Z,17.13
2022-12-23T15:33:03.247Z,18.70
2022-12-23T15:36:32.049Z,19.90
2022-12-23T15:40:04.459Z,17.63
2022-12-23T15:43:29.870Z,15.80
2022-12-23T15:46:54.737Z,14.95
2022-12-23T15:50:19.617Z,15.40
2022-12-23T15:53:44.396Z,14.63
2022-12-23T15:57:07.795Z,16.33
2022-12-23T16:00:35.649Z,17.00
2022-12-23T16:04:01.078Z,13.85
2022-12-23T16:07:28.692Z,15.55
2022-12-23T16:10:59.656Z,13.80
2022-12-23T16:14:32.780Z,14.50
2022-12-23T16:18:10.940Z,14.32
2022-12-23T16:21:36.772Z,13.75
2022-12-23T16:25:02.869Z,13.02
2022-12-23T16:28:29.830Z,12.00
2022-12-23T16:32:01.434Z,11.45
2022-12-23T16:35:28.597Z,9.90
2022-12-23T16:38:55.394Z,9.40
2022-12-23T16:42:20.363Z,9.48
2022-12-23T16:45:44.162Z,8.77
2022-12-23T16:49:10.903Z,8.02
2022-12-23T16:52:34.265Z,8.30
2022-12-23T16:56:01.161Z,7.97
2022-12-23T16:59:25.896Z,6.00
2022-12-23T17:02:49.664Z,6.97
2022-12-23T17:06:14.398Z,6.13
2022-12-23T17:09:37.711Z,5.43
2022-12-23T17:13:02.399Z,5.68
2022-12-23T17:16:25.767Z,4.95
2022-12-23T17:19:49.086Z,5.13
2022-12-23T17:23:19.912Z,4.55
2022-12-23T17:26:43.254Z,4.47
2022-12-23T17:30:08.621Z,4.75
2022-12-23T17:33:33.013Z,4.63
2022-12-23T17:36:56.356Z,4.25
2022-12-23T17:40:20.105Z,3.95
2022-12-23T17:43:43.429Z,4.05
2022-12-23T17:47:12.306Z,5.30
2022-12-23T17:50:36.186Z,6.65
2022-12-23T17:54:00.286Z,6.55
2022-12-23T17:57:25.002Z,8.50
2022-12-23T18:00:48.332Z,6.45
2022-12-23T18:04:13.188Z,7.65
2022-12-23T18:07:36.449Z,7.80
2022-12-23T18:11:00.015Z,7.45
2022-12-23T18:14:28.294Z,6.07
2022-12-23T18:17:52.530Z,6.05
2022-12-23T18:21:21.367Z,6.45
2022-12-23T18:24:44.691Z,7.90
2022-12-23T18:28:08.040Z,5.57
2022-12-23T18:31:32.368Z,4.78
2022-12-23T18:34:56.475Z,7.18
2022-12-23T18:38:21.114Z,6.35
2022-12-23T18:41:44.397Z,7.00
2022-12-23T18:45:18.383Z,6.60
2022-12-23T18:48:41.661Z,5.88
2022-12-23T18:52:07.078Z,6.70
2022-12-23T18:55:31.883Z,8.07
2022-12-23T18:58:55.146Z,7.18
2022-12-23T19:02:18.872Z,6.85
2022-12-23T19:05:42.185Z,7.38
2022-12-23T19:09:05.651Z,7.00
2022-12-23T19:12:30.355Z,7.40
2022-12-23T19:15:53.693Z,7.75
2022-12-23T19:19:17.018Z,7.75
2022-12-23T19:22:40.658Z,7.95
2022-12-23T19:26:06.054Z,8.90
2022-12-23T19:29:30.759Z,6.68
2022-12-23T19:32:54.178Z,8.52
2022-12-23T19:36:22.538Z,6.85
2022-12-23T19:39:45.995Z,7.13
2022-12-23T19:43:09.572Z,6.50
2022-12-23T19:46:34.301Z,7.78
2022-12-23T19:49:57.769Z,8.52
2022-12-23T19:53:21.060Z,7.50
2022-12-23T19:56:44.536Z,7.97
2022-12-23T20:00:08.881Z,8.60
2022-12-23T20:03:39.737Z,8.30
2022-12-23T20:07:03.043Z,7.68
2022-12-23T20:10:26.342Z,6.97
2022-12-23T20:13:53.029Z,7.53
2022-12-23T20:17:16.326Z,6.55
2022-12-23T20:20:40.953Z,6.75
2022-12-23T20:24:04.277Z,6.07
2022-12-23T20:27:28.231Z,5.88
2022-12-23T20:30:59.972Z,5.82
2022-12-23T20:34:23.370Z,5.80
2022-12-23T20:37:47.987Z,7.85
2022-12-23T20:41:12.559Z,6.88
2022-12-23T20:44:37.273Z,6.22
2022-12-23T20:48:01.221Z,6.80
2022-12-23T20:51:25.290Z,8.65
2022-12-23T20:54:49.933Z,7.55
2022-12-23T20:58:36.134Z,7.38
2022-12-23T21:01:59.841Z,7.30
2022-12-23T21:05:23.207Z,8.70
2022-12-23T21:08:46.521Z,7.97
2022-12-23T21:12:11.219Z,9.32
2022-12-23T21:15:34.542Z,9.75
2022-12-23T21:18:57.851Z,13.80
2022-12-23T21:22:21.156Z,10.20
2022-12-23T21:25:44.482Z,9.55
2022-12-23T21:29:10.838Z,9.73
2022-12-23T21:32:34.228Z,11.25
2022-12-23T21:35:57.645Z,9.00
2022-12-23T21:39:20.987Z,8.35
2022-12-23T21:42:44.272Z,9.45
2022-12-23T21:46:09.961Z,7.90
2022-12-23T21:49:33.344Z,7.50
2022-12-23T21:52:56.662Z,8.05
2022-12-23T21:56:21.119Z,6.90
2022-12-23T21:59:44.427Z,8.20
2022-12-23T22:03:09.089Z,9.00
2022-12-23T22:06:33.335Z,8.40
2022-12-23T22:09:56.603Z,8.27
2022-12-23T22:13:19.916Z,9.55
2022-12-23T22:16:43.309Z,8.35
2022-12-23T22:20:08.792Z,7.68
2022-12-23T22:23:32.095Z,8.05
2022-12-23T22:26:55.467Z,7.57
2022-12-23T22:30:18.947Z,7.20
2022-12-23T22:33:42.209Z,7.30
2022-12-23T22:37:06.847Z,7.35
2022-12-23T22:40:30.212Z,7.40
2022-12-23T22:43:53.511Z,6.20
2022-12-23T22:47:16.885Z,6.00
2022-12-23T22:50:40.769Z,6.47
2022-12-23T22:54:05.509Z,6.70
2022-12-23T22:57:28.797Z,6.65
2022-12-23T23:00:52.069Z,5.70
2022-12-23T23:04:15.399Z,6.60
2022-12-23T23:07:38.762Z,7.00
2022-12-23T23:11:04.692Z,8.05
2022-12-23T23:14:27.985Z,5.43
2022-12-23T23:17:51.363Z,7.72
2022-12-23T23:21:15.613Z,8.43
2022-12-23T23:24:38.885Z,7.97
2022-12-23T23:28:03.559Z,6.25
2022-12-23T23:31:43.684Z,5.38
2022-12-23T23:35:10.938Z,5.68
2022-12-23T23:38:35.136Z,5.65
2022-12-23T23:41:58.506Z,7.05
2022-12-23T23:45:23.196Z,6.60
2022-12-23T23:48:46.474Z,7.18
2022-12-23T23:52:09.858Z,6.35
2022-12-23T23:55:33.200Z,6.47
2022-12-23T23:58:56.524Z,6.32
